Harleysville, Pennsylvania
Current Conditions -  °F | °C
As of 7:14 PM on Monday 22 Dec 2014 (Local Time) from KPTW Reporting Station
Overcast Overcast  
Wind Chill: 38°   Ceiling: 2300
Heat Index: 38°   Visibility: 7mi
Dew Point: 36°   Wind: 0mph
Humidity: 93%   Direction: NA
Pressure: 30.21"   Gusts: NA
Location:  40.28°N, 75.39°W
Report Text: KPTW 230014Z AUTO 00000KT 7SM FEW009 BKN023 OVC065 03/02 A3021 RMK AO2 RAE02 P0000 T00330022
Loading
Personal Weather Stations






























Interactive Weather Map New forecast layout! Learn more

10-Day Weather Forecast

Advertisements
Track Severe Weather on mobile